sensor_id;sensor_type;location;lat;lon;timestamp;temperature;humidity
9399;DHT22;4739;49.334;8.792;2022-12-08T00:01:11;3.70;99.90
9399;DHT22;4739;49.334;8.792;2022-12-08T00:03:39;3.70;99.90
9399;DHT22;4739;49.334;8.792;2022-12-08T00:06:06;3.60;99.90
9399;DHT22;4739;49.334;8.792;2022-12-08T00:08:51;3.60;99.90
9399;DHT22;4739;49.334;8.792;2022-12-08T00:11:35;3.80;99.90
9399;DHT22;4739;49.334;8.792;2022-12-08T00:14:03;3.70;99.90
9399;DHT22;4739;49.334;8.792;2022-12-08T00:16:30;3.70;99.90
9399;DHT22;4739;49.334;8.792;2022-12-08T00:18:55;3.70;99.90
9399;DHT22;4739;49.334;8.792;2022-12-08T00:21:21;3.80;99.90
9399;DHT22;4739;49.334;8.792;2022-12-08T00:23:46;3.80;99.90
9399;DHT22;4739;49.334;8.792;2022-12-08T00:26:13;3.80;99.90
9399;DHT22;4739;49.334;8.792;2022-12-08T00:28:40;3.80;99.90
9399;DHT22;4739;49.334;8.792;2022-12-08T00:31:08;3.70;99.90
9399;DHT22;4739;49.334;8.792;2022-12-08T00:33:36;3.70;99.90
9399;DHT22;4739;49.334;8.792;2022-12-08T00:36:11;3.70;99.90
9399;DHT22;4739;49.334;8.792;2022-12-08T00:38:37;3.70;99.90
9399;DHT22;4739;49.334;8.792;2022-12-08T00:41:07;3.70;99.90
9399;DHT22;4739;49.334;8.792;2022-12-08T00:43:36;3.70;99.90
9399;DHT22;4739;49.334;8.792;2022-12-08T00:46:02;3.70;99.90
9399;DHT22;4739;49.334;8.792;2022-12-08T00:48:28;3.70;99.90
9399;DHT22;4739;49.334;8.792;2022-12-08T00:50:53;3.60;99.90
9399;DHT22;4739;49.334;8.792;2022-12-08T00:53:19;3.50;99.90
9399;DHT22;4739;49.334;8.792;2022-12-08T00:55:45;3.50;99.90
9399;DHT22;4739;49.334;8.792;2022-12-08T00:58:11;3.40;99.90
9399;DHT22;4739;49.334;8.792;2022-12-08T01:00:40;3.50;99.90
9399;DHT22;4739;49.334;8.792;2022-12-08T01:03:08;3.50;99.90
9399;DHT22;4739;49.334;8.792;2022-12-08T01:05:34;3.40;99.90
9399;DHT22;4739;49.334;8.792;2022-12-08T01:07:59;3.50;99.90
9399;DHT22;4739;49.334;8.792;2022-12-08T01:10:25;3.50;99.90
9399;DHT22;4739;49.334;8.792;2022-12-08T01:12:52;3.50;99.90
9399;DHT22;4739;49.334;8.792;2022-12-08T01:15:18;3.50;99.90
9399;DHT22;4739;49.334;8.792;2022-12-08T01:17:44;3.50;99.90
9399;DHT22;4739;49.334;8.792;2022-12-08T01:20:10;3.40;99.90
9399;DHT22;4739;49.334;8.792;2022-12-08T01:22:36;3.30;99.90
9399;DHT22;4739;49.334;8.792;2022-12-08T01:25:02;3.30;99.90
9399;DHT22;4739;49.334;8.792;2022-12-08T01:27:29;3.20;99.90
9399;DHT22;4739;49.334;8.792;2022-12-08T01:29:55;3.30;99.90
9399;DHT22;4739;49.334;8.792;2022-12-08T01:32:22;3.30;99.90
9399;DHT22;4739;49.334;8.792;2022-12-08T01:34:48;3.50;99.90
9399;DHT22;4739;49.334;8.792;2022-12-08T01:37:15;3.50;99.90
9399;DHT22;4739;49.334;8.792;2022-12-08T01:39:43;3.50;99.90
9399;DHT22;4739;49.334;8.792;2022-12-08T01:42:19;3.50;99.90
9399;DHT22;4739;49.334;8.792;2022-12-08T01:45:00;3.50;99.90
9399;DHT22;4739;49.334;8.792;2022-12-08T01:47:35;3.40;99.90
9399;DHT22;4739;49.334;8.792;2022-12-08T01:50:04;3.50;99.90
9399;DHT22;4739;49.334;8.792;2022-12-08T01:52:47;3.40;99.90
9399;DHT22;4739;49.334;8.792;2022-12-08T01:55:27;3.50;99.90
9399;DHT22;4739;49.334;8.792;2022-12-08T01:58:02;3.40;99.90
9399;DHT22;4739;49.334;8.792;2022-12-08T02:00:33;3.40;99.90
9399;DHT22;4739;49.334;8.792;2022-12-08T02:03:04;3.50;99.90
9399;DHT22;4739;49.334;8.792;2022-12-08T02:05:35;3.40;99.90
9399;DHT22;4739;49.334;8.792;2022-12-08T02:08:05;3.40;99.90
9399;DHT22;4739;49.334;8.792;2022-12-08T02:10:34;3.50;99.90
9399;DHT22;4739;49.334;8.792;2022-12-08T02:13:00;3.50;99.90
9399;DHT22;4739;49.334;8.792;2022-12-08T02:21:05;3.30;99.90
9399;DHT22;4739;49.334;8.792;2022-12-08T02:26:47;3.20;99.90
9399;DHT22;4739;49.334;8.792;2022-12-08T02:35:07;3.10;99.90
9399;DHT22;4739;49.334;8.792;2022-12-08T02:37:54;3.10;99.90
9399;DHT22;4739;49.334;8.792;2022-12-08T02:40:27;3.10;99.90
9399;DHT22;4739;49.334;8.792;2022-12-08T02:43:06;3.00;99.90
9399;DHT22;4739;49.334;8.792;2022-12-08T02:45:42;3.10;99.90
9399;DHT22;4739;49.334;8.792;2022-12-08T02:48:10;3.10;99.90
9399;DHT22;4739;49.334;8.792;2022-12-08T02:50:35;3.20;99.90
9399;DHT22;4739;49.334;8.792;2022-12-08T02:53:01;3.20;99.90
9399;DHT22;4739;49.334;8.792;2022-12-08T02:55:39;3.10;99.90
9399;DHT22;4739;49.334;8.792;2022-12-08T03:01:09;3.10;99.90
9399;DHT22;4739;49.334;8.792;2022-12-08T03:06:58;3.30;99.90
9399;DHT22;4739;49.334;8.792;2022-12-08T03:12:15;3.20;99.90
9399;DHT22;4739;49.334;8.792;2022-12-08T03:14:45;3.30;99.90
9399;DHT22;4739;49.334;8.792;2022-12-08T03:17:13;3.30;99.90
9399;DHT22;4739;49.334;8.792;2022-12-08T03:19:41;3.40;99.90
9399;DHT22;4739;49.334;8.792;2022-12-08T03:22:08;3.40;99.90
9399;DHT22;4739;49.334;8.792;2022-12-08T03:24:40;3.30;99.90
9399;DHT22;4739;49.334;8.792;2022-12-08T03:27:13;3.30;99.90
9399;DHT22;4739;49.334;8.792;2022-12-08T03:29:39;3.20;99.90
9399;DHT22;4739;49.334;8.792;2022-12-08T03:32:17;3.30;99.90
9399;DHT22;4739;49.334;8.792;2022-12-08T03:34:46;3.30;99.90
9399;DHT22;4739;49.334;8.792;2022-12-08T03:37:12;3.30;99.90
9399;DHT22;4739;49.334;8.792;2022-12-08T03:39:38;3.20;99.90
9399;DHT22;4739;49.334;8.792;2022-12-08T03:42:05;3.20;99.90
9399;DHT22;4739;49.334;8.792;2022-12-08T03:44:31;3.10;99.90
9399;DHT22;4739;49.334;8.792;2022-12-08T03:46:56;3.20;99.90
9399;DHT22;4739;49.334;8.792;2022-12-08T03:49:22;3.20;99.90
9399;DHT22;4739;49.334;8.792;2022-12-08T03:51:47;3.30;99.90
9399;DHT22;4739;49.334;8.792;2022-12-08T03:54:13;3.30;99.90
9399;DHT22;4739;49.334;8.792;2022-12-08T03:56:38;3.30;99.90
9399;DHT22;4739;49.334;8.792;2022-12-08T03:59:05;3.30;99.90
9399;DHT22;4739;49.334;8.792;2022-12-08T04:01:31;3.30;99.90
9399;DHT22;4739;49.334;8.792;2022-12-08T04:03:59;3.30;99.90
9399;DHT22;4739;49.334;8.792;2022-12-08T04:06:24;3.30;99.90
9399;DHT22;4739;49.334;8.792;2022-12-08T04:08:50;3.30;99.90
9399;DHT22;4739;49.334;8.792;2022-12-08T04:11:17;3.30;99.90
9399;DHT22;4739;49.334;8.792;2022-12-08T04:13:44;3.40;99.90
9399;DHT22;4739;49.334;8.792;2022-12-08T04:16:18;3.40;99.90
9399;DHT22;4739;49.334;8.792;2022-12-08T04:18:44;3.30;99.90
9399;DHT22;4739;49.334;8.792;2022-12-08T04:21:10;3.10;99.90
9399;DHT22;4739;49.334;8.792;2022-12-08T04:23:36;3.10;99.90
9399;DHT22;4739;49.334;8.792;2022-12-08T04:26:01;3.20;99.90
9399;DHT22;4739;49.334;8.792;2022-12-08T04:28:27;3.30;99.90
9399;DHT22;4739;49.334;8.792;2022-12-08T04:30:54;3.30;99.90
9399;DHT22;4739;49.334;8.792;2022-12-08T04:33:20;3.40;99.90
9399;DHT22;4739;49.334;8.792;2022-12-08T04:38:18;3.40;99.90
9399;DHT22;4739;49.334;8.792;2022-12-08T04:40:44;3.40;99.90
9399;DHT22;4739;49.334;8.792;2022-12-08T04:43:09;3.20;99.90
9399;DHT22;4739;49.334;8.792;2022-12-08T04:45:38;3.20;99.90
9399;DHT22;4739;49.334;8.792;2022-12-08T04:48:04;3.30;99.90
9399;DHT22;4739;49.334;8.792;2022-12-08T04:50:30;3.30;99.90
9399;DHT22;4739;49.334;8.792;2022-12-08T04:52:56;3.40;99.90
9399;DHT22;4739;49.334;8.792;2022-12-08T04:55:21;3.30;99.90
9399;DHT22;4739;49.334;8.792;2022-12-08T04:57:47;3.40;99.90
9399;DHT22;4739;49.334;8.792;2022-12-08T05:00:13;3.40;99.90
9399;DHT22;4739;49.334;8.792;2022-12-08T05:02:39;3.30;99.90
9399;DHT22;4739;49.334;8.792;2022-12-08T05:05:06;3.30;99.90
9399;DHT22;4739;49.334;8.792;2022-12-08T05:07:32;3.30;99.90
9399;DHT22;4739;49.334;8.792;2022-12-08T05:09:58;3.20;99.90
9399;DHT22;4739;49.334;8.792;2022-12-08T05:12:23;3.20;99.90
9399;DHT22;4739;49.334;8.792;2022-12-08T05:14:49;3.20;99.90
9399;DHT22;4739;49.334;8.792;2022-12-08T05:17:16;3.20;99.90
9399;DHT22;4739;49.334;8.792;2022-12-08T05:19:42;3.20;99.90
9399;DHT22;4739;49.334;8.792;2022-12-08T05:22:07;3.30;99.90
9399;DHT22;4739;49.334;8.792;2022-12-08T05:24:33;3.30;99.90
9399;DHT22;4739;49.334;8.792;2022-12-08T05:27:01;3.30;99.90
9399;DHT22;4739;49.334;8.792;2022-12-08T05:29:26;3.20;99.90
9399;DHT22;4739;49.334;8.792;2022-12-08T05:31:53;3.10;99.90
9399;DHT22;4739;49.334;8.792;2022-12-08T05:34:20;3.20;99.90
9399;DHT22;4739;49.334;8.792;2022-12-08T05:36:46;3.30;99.90
9399;DHT22;4739;49.334;8.792;2022-12-08T05:39:14;3.20;99.90
9399;DHT22;4739;49.334;8.792;2022-12-08T05:41:40;3.20;99.90
9399;DHT22;4739;49.334;8.792;2022-12-08T05:44:06;3.10;99.90
9399;DHT22;4739;49.334;8.792;2022-12-08T05:46:32;3.20;99.90
9399;DHT22;4739;49.334;8.792;2022-12-08T05:48:59;3.30;99.90
9399;DHT22;4739;49.334;8.792;2022-12-08T05:51:26;3.30;99.90
9399;DHT22;4739;49.334;8.792;2022-12-08T05:53:53;3.40;99.90
9399;DHT22;4739;49.334;8.792;2022-12-08T05:56:19;3.40;99.90
9399;DHT22;4739;49.334;8.792;2022-12-08T05:58:46;3.40;99.90
9399;DHT22;4739;49.334;8.792;2022-12-08T06:01:25;3.50;99.90
9399;DHT22;4739;49.334;8.792;2022-12-08T06:03:51;3.50;99.90
9399;DHT22;4739;49.334;8.792;2022-12-08T06:06:17;3.40;99.90
9399;DHT22;4739;49.334;8.792;2022-12-08T06:08:44;3.40;99.90
9399;DHT22;4739;49.334;8.792;2022-12-08T06:11:21;3.50;99.90
9399;DHT22;4739;49.334;8.792;2022-12-08T06:13:49;3.50;99.90
9399;DHT22;4739;49.334;8.792;2022-12-08T06:16:15;3.50;99.90
9399;DHT22;4739;49.334;8.792;2022-12-08T06:18:42;3.50;99.90
9399;DHT22;4739;49.334;8.792;2022-12-08T06:21:10;3.50;99.90
9399;DHT22;4739;49.334;8.792;2022-12-08T06:23:39;3.50;99.90
9399;DHT22;4739;49.334;8.792;2022-12-08T06:26:11;3.50;99.90
9399;DHT22;4739;49.334;8.792;2022-12-08T06:28:38;3.40;99.90
9399;DHT22;4739;49.334;8.792;2022-12-08T06:31:10;3.50;99.90
9399;DHT22;4739;49.334;8.792;2022-12-08T06:33:36;3.50;99.90
9399;DHT22;4739;49.334;8.792;2022-12-08T06:36:03;3.40;99.90
9399;DHT22;4739;49.334;8.792;2022-12-08T06:38:29;3.50;99.90
9399;DHT22;4739;49.334;8.792;2022-12-08T06:40:55;3.50;99.90
9399;DHT22;4739;49.334;8.792;2022-12-08T06:43:21;3.40;99.90
9399;DHT22;4739;49.334;8.792;2022-12-08T06:45:48;3.30;99.90
9399;DHT22;4739;49.334;8.792;2022-12-08T06:48:14;3.10;99.90
9399;DHT22;4739;49.334;8.792;2022-12-08T06:50:40;3.10;99.90
9399;DHT22;4739;49.334;8.792;2022-12-08T06:53:06;3.10;99.90
9399;DHT22;4739;49.334;8.792;2022-12-08T06:55:32;3.10;99.90
9399;DHT22;4739;49.334;8.792;2022-12-08T06:57:57;3.10;99.90
9399;DHT22;4739;49.334;8.792;2022-12-08T07:00:24;3.20;99.90
9399;DHT22;4739;49.334;8.792;2022-12-08T07:02:50;3.30;99.90
9399;DHT22;4739;49.334;8.792;2022-12-08T07:05:16;3.30;99.90
9399;DHT22;4739;49.334;8.792;2022-12-08T07:07:42;3.30;99.90
9399;DHT22;4739;49.334;8.792;2022-12-08T07:10:09;3.30;99.90
9399;DHT22;4739;49.334;8.792;2022-12-08T07:12:35;3.30;99.90
9399;DHT22;4739;49.334;8.792;2022-12-08T07:15:00;3.40;99.90
9399;DHT22;4739;49.334;8.792;2022-12-08T07:17:26;3.40;99.90
9399;DHT22;4739;49.334;8.792;2022-12-08T07:19:51;3.50;99.90
9399;DHT22;4739;49.334;8.792;2022-12-08T07:22:17;3.50;99.90
9399;DHT22;4739;49.334;8.792;2022-12-08T07:24:42;3.50;99.90
9399;DHT22;4739;49.334;8.792;2022-12-08T07:27:08;3.40;99.90
9399;DHT22;4739;49.334;8.792;2022-12-08T07:29:34;3.50;99.90
9399;DHT22;4739;49.334;8.792;2022-12-08T07:31:59;3.50;99.90
9399;DHT22;4739;49.334;8.792;2022-12-08T07:34:25;3.60;99.90
9399;DHT22;4739;49.334;8.792;2022-12-08T07:36:51;3.50;99.90
9399;DHT22;4739;49.334;8.792;2022-12-08T07:39:17;3.50;99.90
9399;DHT22;4739;49.334;8.792;2022-12-08T07:41:42;3.60;99.90
9399;DHT22;4739;49.334;8.792;2022-12-08T07:44:08;3.60;99.90
9399;DHT22;4739;49.334;8.792;2022-12-08T07:46:35;3.70;99.90
9399;DHT22;4739;49.334;8.792;2022-12-08T07:49:02;3.60;99.90
9399;DHT22;4739;49.334;8.792;2022-12-08T07:51:28;3.60;99.90
9399;DHT22;4739;49.334;8.792;2022-12-08T07:53:54;3.50;99.90
9399;DHT22;4739;49.334;8.792;2022-12-08T07:56:20;3.60;99.90
9399;DHT22;4739;49.334;8.792;2022-12-08T07:58:46;3.50;99.90
9399;DHT22;4739;49.334;8.792;2022-12-08T08:01:27;3.50;99.90
9399;DHT22;4739;49.334;8.792;2022-12-08T08:03:57;3.50;99.90
9399;DHT22;4739;49.334;8.792;2022-12-08T08:06:27;3.70;99.90
9399;DHT22;4739;49.334;8.792;2022-12-08T08:08:54;3.80;99.90
9399;DHT22;4739;49.334;8.792;2022-12-08T08:11:19;3.80;99.90
9399;DHT22;4739;49.334;8.792;2022-12-08T08:13:49;3.80;99.90
9399;DHT22;4739;49.334;8.792;2022-12-08T08:16:14;3.80;99.90
9399;DHT22;4739;49.334;8.792;2022-12-08T08:18:40;3.80;99.90
9399;DHT22;4739;49.334;8.792;2022-12-08T08:21:06;3.70;99.90
9399;DHT22;4739;49.334;8.792;2022-12-08T08:23:33;3.70;99.90
9399;DHT22;4739;49.334;8.792;2022-12-08T08:26:03;3.80;99.90
9399;DHT22;4739;49.334;8.792;2022-12-08T08:28:29;3.60;99.90
9399;DHT22;4739;49.334;8.792;2022-12-08T08:30:55;3.60;99.90
9399;DHT22;4739;49.334;8.792;2022-12-08T08:33:21;3.70;99.90
9399;DHT22;4739;49.334;8.792;2022-12-08T08:38:19;3.90;99.90
9399;DHT22;4739;49.334;8.792;2022-12-08T08:40:45;3.90;99.90
9399;DHT22;4739;49.334;8.792;2022-12-08T08:43:11;3.90;99.90
9399;DHT22;4739;49.334;8.792;2022-12-08T08:46:03;3.90;99.90
9399;DHT22;4739;49.334;8.792;2022-12-08T08:48:29;3.90;99.90
9399;DHT22;4739;49.334;8.792;2022-12-08T08:50:56;3.90;99.90
9399;DHT22;4739;49.334;8.792;2022-12-08T08:53:22;3.90;99.90
9399;DHT22;4739;49.334;8.792;2022-12-08T08:55:48;3.90;99.90
9399;DHT22;4739;49.334;8.792;2022-12-08T08:58:14;4.00;99.90
9399;DHT22;4739;49.334;8.792;2022-12-08T09:00:40;4.00;99.90
9399;DHT22;4739;49.334;8.792;2022-12-08T09:03:08;4.10;99.90
9399;DHT22;4739;49.334;8.792;2022-12-08T09:05:36;4.20;99.90
9399;DHT22;4739;49.334;8.792;2022-12-08T09:08:01;4.20;99.90
9399;DHT22;4739;49.334;8.792;2022-12-08T09:10:27;4.30;99.90
9399;DHT22;4739;49.334;8.792;2022-12-08T09:12:53;4.40;99.90
9399;DHT22;4739;49.334;8.792;2022-12-08T09:15:19;4.50;99.90
9399;DHT22;4739;49.334;8.792;2022-12-08T09:17:45;4.50;99.90
9399;DHT22;4739;49.334;8.792;2022-12-08T09:20:12;4.40;99.90
9399;DHT22;4739;49.334;8.792;2022-12-08T09:22:38;4.60;99.90
9399;DHT22;4739;49.334;8.792;2022-12-08T09:25:03;4.60;99.90
9399;DHT22;4739;49.334;8.792;2022-12-08T09:27:31;4.40;99.90
9399;DHT22;4739;49.334;8.792;2022-12-08T09:29:56;4.40;99.90
9399;DHT22;4739;49.334;8.792;2022-12-08T09:32:23;4.30;99.90
9399;DHT22;4739;49.334;8.792;2022-12-08T09:34:49;4.20;99.90
9399;DHT22;4739;49.334;8.792;2022-12-08T09:37:16;4.30;99.90
9399;DHT22;4739;49.334;8.792;2022-12-08T09:39:42;4.50;99.90
9399;DHT22;4739;49.334;8.792;2022-12-08T09:42:09;4.60;99.90
9399;DHT22;4739;49.334;8.792;2022-12-08T09:44:40;4.70;99.90
9399;DHT22;4739;49.334;8.792;2022-12-08T09:47:21;4.60;99.90
9399;DHT22;4739;49.334;8.792;2022-12-08T09:49:55;4.70;99.90
9399;DHT22;4739;49.334;8.792;2022-12-08T09:52:27;4.70;99.90
9399;DHT22;4739;49.334;8.792;2022-12-08T09:54:58;4.70;99.90
9399;DHT22;4739;49.334;8.792;2022-12-08T09:57:27;4.80;99.90
9399;DHT22;4739;49.334;8.792;2022-12-08T09:59:58;4.80;99.90
9399;DHT22;4739;49.334;8.792;2022-12-08T10:02:28;4.90;99.90
9399;DHT22;4739;49.334;8.792;2022-12-08T10:04:55;4.80;99.90
9399;DHT22;4739;49.334;8.792;2022-12-08T10:13:13;4.40;99.90
9399;DHT22;4739;49.334;8.792;2022-12-08T10:18:34;4.50;99.90
9399;DHT22;4739;49.334;8.792;2022-12-08T10:21:18;4.50;99.90
9399;DHT22;4739;49.334;8.792;2022-12-08T10:23:49;4.60;99.90
9399;DHT22;4739;49.334;8.792;2022-12-08T10:26:17;4.50;99.90
9399;DHT22;4739;49.334;8.792;2022-12-08T10:28:45;4.40;99.90
9399;DHT22;4739;49.334;8.792;2022-12-08T10:31:21;4.40;99.90
9399;DHT22;4739;49.334;8.792;2022-12-08T10:33:56;4.50;99.90
9399;DHT22;4739;49.334;8.792;2022-12-08T10:36:43;4.70;99.90
9399;DHT22;4739;49.334;8.792;2022-12-08T10:39:32;4.90;99.90
9399;DHT22;4739;49.334;8.792;2022-12-08T10:45:07;4.90;99.90
9399;DHT22;4739;49.334;8.792;2022-12-08T10:47:40;4.80;99.90
9399;DHT22;4739;49.334;8.792;2022-12-08T10:50:19;5.00;99.90
9399;DHT22;4739;49.334;8.792;2022-12-08T10:52:53;5.00;99.90
9399;DHT22;4739;49.334;8.792;2022-12-08T10:55:20;5.00;99.90
9399;DHT22;4739;49.334;8.792;2022-12-08T10:57:46;5.10;99.90
9399;DHT22;4739;49.334;8.792;2022-12-08T11:00:25;5.00;99.90
9399;DHT22;4739;49.334;8.792;2022-12-08T11:03:02;5.00;99.90
9399;DHT22;4739;49.334;8.792;2022-12-08T11:05:34;5.10;99.90
9399;DHT22;4739;49.334;8.792;2022-12-08T11:08:03;5.10;99.90
9399;DHT22;4739;49.334;8.792;2022-12-08T11:10:35;5.10;99.90
9399;DHT22;4739;49.334;8.792;2022-12-08T11:13:05;4.90;99.90
9399;DHT22;4739;49.334;8.792;2022-12-08T11:15:37;4.90;99.90
9399;DHT22;4739;49.334;8.792;2022-12-08T11:18:30;4.70;99.90
9399;DHT22;4739;49.334;8.792;2022-12-08T11:21:12;4.80;99.90
9399;DHT22;4739;49.334;8.792;2022-12-08T11:23:41;4.80;99.90
9399;DHT22;4739;49.334;8.792;2022-12-08T11:26:22;4.80;99.90
9399;DHT22;4739;49.334;8.792;2022-12-08T11:28:52;4.70;99.90
9399;DHT22;4739;49.334;8.792;2022-12-08T11:31:32;4.70;99.90
9399;DHT22;4739;49.334;8.792;2022-12-08T11:33:59;4.60;99.90
9399;DHT22;4739;49.334;8.792;2022-12-08T11:36:29;4.60;99.90
9399;DHT22;4739;49.334;8.792;2022-12-08T11:38:59;4.60;99.90
9399;DHT22;4739;49.334;8.792;2022-12-08T11:41:30;4.60;99.90
9399;DHT22;4739;49.334;8.792;2022-12-08T11:44:04;4.60;99.90
9399;DHT22;4739;49.334;8.792;2022-12-08T11:46:38;4.50;99.90
9399;DHT22;4739;49.334;8.792;2022-12-08T11:49:10;4.50;99.90
9399;DHT22;4739;49.334;8.792;2022-12-08T11:54:26;4.80;99.90
9399;DHT22;4739;49.334;8.792;2022-12-08T11:57:01;5.00;99.90
9399;DHT22;4739;49.334;8.792;2022-12-08T11:59:43;5.10;99.90
9399;DHT22;4739;49.334;8.792;2022-12-08T12:02:19;5.20;99.90
9399;DHT22;4739;49.334;8.792;2022-12-08T12:04:56;5.40;99.90
9399;DHT22;4739;49.334;8.792;2022-12-08T12:10:05;5.50;99.90
9399;DHT22;4739;49.334;8.792;2022-12-08T12:18:38;5.60;99.90
9399;DHT22;4739;49.334;8.792;2022-12-08T12:21:39;5.60;99.90
9399;DHT22;4739;49.334;8.792;2022-12-08T12:24:23;5.70;99.90
9399;DHT22;4739;49.334;8.792;2022-12-08T12:27:01;5.80;99.90
9399;DHT22;4739;49.334;8.792;2022-12-08T12:29:31;5.50;99.90
9399;DHT22;4739;49.334;8.792;2022-12-08T12:32:08;5.40;99.90
9399;DHT22;4739;49.334;8.792;2022-12-08T12:34:47;5.30;99.90
9399;DHT22;4739;49.334;8.792;2022-12-08T12:40:03;5.60;99.90
9399;DHT22;4739;49.334;8.792;2022-12-08T12:48:13;5.90;99.90
9399;DHT22;4739;49.334;8.792;2022-12-08T12:50:46;5.80;99.90
9399;DHT22;4739;49.334;8.792;2022-12-08T12:58:38;5.50;99.90
9399;DHT22;4739;49.334;8.792;2022-12-08T13:04:03;5.60;99.90
9399;DHT22;4739;49.334;8.792;2022-12-08T13:06:49;5.80;99.90
9399;DHT22;4739;49.334;8.792;2022-12-08T13:09:26;5.90;99.90
9399;DHT22;4739;49.334;8.792;2022-12-08T13:11:56;6.00;99.90
9399;DHT22;4739;49.334;8.792;2022-12-08T13:14:31;5.90;99.90
9399;DHT22;4739;49.334;8.792;2022-12-08T13:16:59;5.80;99.90
9399;DHT22;4739;49.334;8.792;2022-12-08T13:19:30;5.80;99.90
9399;DHT22;4739;49.334;8.792;2022-12-08T13:21:56;6.00;99.90
9399;DHT22;4739;49.334;8.792;2022-12-08T13:24:27;6.30;99.90
9399;DHT22;4739;49.334;8.792;2022-12-08T13:29:31;6.50;99.90
9399;DHT22;4739;49.334;8.792;2022-12-08T13:34:54;6.50;99.90
9399;DHT22;4739;49.334;8.792;2022-12-08T13:37:30;6.40;99.90
9399;DHT22;4739;49.334;8.792;2022-12-08T13:40:08;6.00;99.90
9399;DHT22;4739;49.334;8.792;2022-12-08T13:50:27;5.40;99.90
9399;DHT22;4739;49.334;8.792;2022-12-08T13:53:01;5.30;99.90
9399;DHT22;4739;49.334;8.792;2022-12-08T13:55:44;5.30;99.90
9399;DHT22;4739;49.334;8.792;2022-12-08T14:01:18;5.40;99.90
9399;DHT22;4739;49.334;8.792;2022-12-08T14:03:54;5.20;99.90
9399;DHT22;4739;49.334;8.792;2022-12-08T14:06:37;5.30;99.90
9399;DHT22;4739;49.334;8.792;2022-12-08T14:09:20;5.40;99.90
9399;DHT22;4739;49.334;8.792;2022-12-08T14:11:58;5.30;99.90
9399;DHT22;4739;49.334;8.792;2022-12-08T14:14:35;5.40;99.90
9399;DHT22;4739;49.334;8.792;2022-12-08T14:17:14;5.50;99.90
9399;DHT22;4739;49.334;8.792;2022-12-08T14:19:43;5.60;99.90
9399;DHT22;4739;49.334;8.792;2022-12-08T14:22:15;5.70;99.90
9399;DHT22;4739;49.334;8.792;2022-12-08T14:24:47;5.60;99.90
9399;DHT22;4739;49.334;8.792;2022-12-08T14:27:15;5.50;99.90
9399;DHT22;4739;49.334;8.792;2022-12-08T14:29:50;5.50;99.90
9399;DHT22;4739;49.334;8.792;2022-12-08T14:32:29;5.30;99.90
9399;DHT22;4739;49.334;8.792;2022-12-08T14:35:11;5.20;99.90
9399;DHT22;4739;49.334;8.792;2022-12-08T14:37:41;5.10;99.90
9399;DHT22;4739;49.334;8.792;2022-12-08T14:40:36;5.10;99.90
9399;DHT22;4739;49.334;8.792;2022-12-08T14:53:40;5.10;99.90
9399;DHT22;4739;49.334;8.792;2022-12-08T14:56:10;5.10;99.90
9399;DHT22;4739;49.334;8.792;2022-12-08T14:58:39;5.10;99.90
9399;DHT22;4739;49.334;8.792;2022-12-08T15:01:06;5.10;99.90
9399;DHT22;4739;49.334;8.792;2022-12-08T15:03:34;5.10;99.90
9399;DHT22;4739;49.334;8.792;2022-12-08T15:06:04;5.10;99.90
9399;DHT22;4739;49.334;8.792;2022-12-08T15:08:31;5.00;99.90
9399;DHT22;4739;49.334;8.792;2022-12-08T15:13:50;4.80;99.90
9399;DHT22;4739;49.334;8.792;2022-12-08T15:21:53;4.80;99.90
9399;DHT22;4739;49.334;8.792;2022-12-08T15:24:23;4.80;99.90
9399;DHT22;4739;49.334;8.792;2022-12-08T15:26:51;4.80;99.90
9399;DHT22;4739;49.334;8.792;2022-12-08T15:29:26;4.70;99.90
9399;DHT22;4739;49.334;8.792;2022-12-08T15:31:57;4.60;99.90
9399;DHT22;4739;49.334;8.792;2022-12-08T15:34:23;4.50;99.90
9399;DHT22;4739;49.334;8.792;2022-12-08T15:36:53;4.50;99.90
9399;DHT22;4739;49.334;8.792;2022-12-08T15:39:33;4.40;99.90
9399;DHT22;4739;49.334;8.792;2022-12-08T15:42:00;4.40;99.90
9399;DHT22;4739;49.334;8.792;2022-12-08T15:44:26;4.30;99.90
9399;DHT22;4739;49.334;8.792;2022-12-08T15:46:53;4.30;99.90
9399;DHT22;4739;49.334;8.792;2022-12-08T15:49:21;4.20;99.90
9399;DHT22;4739;49.334;8.792;2022-12-08T15:51:49;4.10;99.90
9399;DHT22;4739;49.334;8.792;2022-12-08T15:54:15;4.00;99.90
9399;DHT22;4739;49.334;8.792;2022-12-08T15:56:46;4.00;99.90
9399;DHT22;4739;49.334;8.792;2022-12-08T15:59:20;4.00;99.90
9399;DHT22;4739;49.334;8.792;2022-12-08T16:01:46;4.00;99.90
9399;DHT22;4739;49.334;8.792;2022-12-08T16:04:13;3.90;99.90
9399;DHT22;4739;49.334;8.792;2022-12-08T16:06:41;3.90;99.90
9399;DHT22;4739;49.334;8.792;2022-12-08T16:09:20;3.90;99.90
9399;DHT22;4739;49.334;8.792;2022-12-08T16:11:47;3.90;99.90
9399;DHT22;4739;49.334;8.792;2022-12-08T16:14:31;3.90;99.90
9399;DHT22;4739;49.334;8.792;2022-12-08T16:16:57;3.90;99.90
9399;DHT22;4739;49.334;8.792;2022-12-08T16:19:23;3.90;99.90
9399;DHT22;4739;49.334;8.792;2022-12-08T16:21:49;3.90;99.90
9399;DHT22;4739;49.334;8.792;2022-12-08T16:24:16;3.90;99.90
9399;DHT22;4739;49.334;8.792;2022-12-08T16:26:42;3.90;99.90
9399;DHT22;4739;49.334;8.792;2022-12-08T16:29:16;3.90;99.90
9399;DHT22;4739;49.334;8.792;2022-12-08T16:31:41;3.90;99.90
9399;DHT22;4739;49.334;8.792;2022-12-08T16:34:08;3.80;99.90
9399;DHT22;4739;49.334;8.792;2022-12-08T16:36:33;3.80;99.90
9399;DHT22;4739;49.334;8.792;2022-12-08T16:38:59;3.80;99.90
9399;DHT22;4739;49.334;8.792;2022-12-08T16:41:26;3.80;99.90
9399;DHT22;4739;49.334;8.792;2022-12-08T16:44:10;4.00;99.90
9399;DHT22;4739;49.334;8.792;2022-12-08T16:46:36;3.90;99.90
9399;DHT22;4739;49.334;8.792;2022-12-08T16:49:03;3.90;99.90
9399;DHT22;4739;49.334;8.792;2022-12-08T16:51:28;3.80;99.90
9399;DHT22;4739;49.334;8.792;2022-12-08T16:53:54;3.80;99.90
9399;DHT22;4739;49.334;8.792;2022-12-08T16:56:21;3.80;99.90
9399;DHT22;4739;49.334;8.792;2022-12-08T16:58:47;3.80;99.90
9399;DHT22;4739;49.334;8.792;2022-12-08T17:01:15;3.80;99.90
9399;DHT22;4739;49.334;8.792;2022-12-08T17:03:42;4.00;99.90
9399;DHT22;4739;49.334;8.792;2022-12-08T17:06:16;4.10;99.90
9399;DHT22;4739;49.334;8.792;2022-12-08T17:08:43;4.10;99.90
9399;DHT22;4739;49.334;8.792;2022-12-08T17:11:08;4.20;99.90
9399;DHT22;4739;49.334;8.792;2022-12-08T17:13:39;4.20;99.90
9399;DHT22;4739;49.334;8.792;2022-12-08T17:16:11;4.10;99.90
9399;DHT22;4739;49.334;8.792;2022-12-08T17:18:37;4.00;99.90
9399;DHT22;4739;49.334;8.792;2022-12-08T17:21:09;4.00;99.90
9399;DHT22;4739;49.334;8.792;2022-12-08T17:23:36;4.10;99.90
9399;DHT22;4739;49.334;8.792;2022-12-08T17:26:02;4.00;99.90
9399;DHT22;4739;49.334;8.792;2022-12-08T17:28:28;3.90;99.90
9399;DHT22;4739;49.334;8.792;2022-12-08T17:30:53;3.90;99.90
9399;DHT22;4739;49.334;8.792;2022-12-08T17:33:19;3.80;99.90
9399;DHT22;4739;49.334;8.792;2022-12-08T17:38:19;3.90;99.90
9399;DHT22;4739;49.334;8.792;2022-12-08T17:40:45;3.90;99.90
9399;DHT22;4739;49.334;8.792;2022-12-08T17:43:12;3.90;99.90
9399;DHT22;4739;49.334;8.792;2022-12-08T17:45:44;4.10;99.90
9399;DHT22;4739;49.334;8.792;2022-12-08T17:48:10;4.10;99.90
9399;DHT22;4739;49.334;8.792;2022-12-08T17:50:37;4.10;99.90
9399;DHT22;4739;49.334;8.792;2022-12-08T17:53:04;3.90;99.90
9399;DHT22;4739;49.334;8.792;2022-12-08T17:55:30;3.90;99.90
9399;DHT22;4739;49.334;8.792;2022-12-08T17:57:55;3.90;99.90
9399;DHT22;4739;49.334;8.792;2022-12-08T18:00:21;3.80;99.90
9399;DHT22;4739;49.334;8.792;2022-12-08T18:02:46;3.80;99.90
9399;DHT22;4739;49.334;8.792;2022-12-08T18:05:12;3.70;99.90
9399;DHT22;4739;49.334;8.792;2022-12-08T18:07:38;3.70;99.90
9399;DHT22;4739;49.334;8.792;2022-12-08T18:10:07;3.80;99.90
9399;DHT22;4739;49.334;8.792;2022-12-08T18:12:32;3.80;99.90
9399;DHT22;4739;49.334;8.792;2022-12-08T18:14:58;3.70;99.90
9399;DHT22;4739;49.334;8.792;2022-12-08T18:17:24;3.70;99.90